Time;durP1;ratioP1;P1;durP2;ratioP2;P2;SDS_P1;SDS_P2;PMS_P1;PMS_P2;Temp;Humidity;BMP_temperature;BMP_pressure;BME280_temperature;BME280_humidity;BME280_pressure;Samples;Min_cycle;Max_cycle;Signal;HPM_P1;HPM_P2
2022/12/27 00:01:50;;;;;;;37.00;21.08;;;;;;;5.95;83.81;100737.81;5048580;28;20034;-71
2022/12/27 00:04:16;;;;;;;30.02;18.23;;;;;;;5.94;84.58;100738.75;5038067;28;20029;-72
2022/12/27 00:06:41;;;;;;;33.10;18.70;;;;;;;5.96;84.23;100729.81;5037755;28;20034;-72
2022/12/27 00:09:19;;;;;;;28.75;17.85;;;;;;;5.97;83.58;100733.28;5209713;22;20084;-65
2022/12/27 00:11:45;;;;;;;29.77;18.45;;;;;;;5.88;84.44;100723.38;5035982;28;20034;-65
2022/12/27 00:14:10;;;;;;;36.03;19.33;;;;;;;5.93;84.01;100729.19;5044097;28;20087;-65
2022/12/27 00:16:36;;;;;;;32.67;18.05;;;;;;;5.97;84.35;100736.75;5055314;28;20029;-65
2022/12/27 00:19:02;;;;;;;32.25;18.00;;;;;;;5.93;84.19;100739.72;5057841;28;20344;-65
2022/12/27 00:21:28;;;;;;;33.30;18.40;;;;;;;5.76;84.57;100736.44;5060223;28;20108;-65
2022/12/27 00:23:56;;;;;;;35.95;20.15;;;;;;;5.73;85.12;100735.81;5059269;28;20041;-65
2022/12/27 00:26:27;;;;;;;38.17;19.83;;;;;;;5.66;85.29;100743.28;5059525;28;20032;-65
2022/12/27 00:28:53;;;;;;;39.55;20.75;;;;;;;5.65;85.05;100738.97;5060189;28;20088;-65
2022/12/27 00:31:20;;;;;;;34.90;20.83;;;;;;;5.76;84.97;100725.94;5059914;28;20036;-64
2022/12/27 00:33:48;;;;;;;36.90;20.02;;;;;;;5.90;83.89;100734.66;5060157;28;20041;-65
2022/12/27 00:36:17;;;;;;;36.47;20.27;;;;;;;5.90;84.10;100725.00;5059418;28;20100;-65
2022/12/27 00:38:43;;;;;;;36.58;20.33;;;;;;;6.11;82.66;100735.78;5058528;28;20107;-65
2022/12/27 00:41:09;;;;;;;38.38;21.63;;;;;;;6.28;82.14;100730.19;5059695;28;20036;-65
2022/12/27 00:43:34;;;;;;;41.60;24.40;;;;;;;6.18;81.80;100712.50;5060011;28;21673;-65
2022/12/27 00:46:00;;;;;;;36.85;20.55;;;;;;;6.09;81.88;100711.38;5060142;28;20383;-67
2022/12/27 00:48:26;;;;;;;38.20;21.55;;;;;;;6.06;82.55;100704.56;5059421;28;20056;-65
2022/12/27 00:50:59;;;;;;;36.83;21.08;;;;;;;6.23;81.73;100705.13;5060713;28;20036;-65
2022/12/27 00:53:26;;;;;;;39.63;21.80;;;;;;;6.30;80.84;100707.22;5060400;28;20064;-65
2022/12/27 00:55:51;;;;;;;40.55;22.30;;;;;;;6.28;80.95;100698.63;5060666;28;20032;-65
2022/12/27 00:58:16;;;;;;;32.03;19.60;;;;;;;6.20;80.39;100705.34;5060137;28;20347;-65
2022/12/27 01:00:42;;;;;;;37.45;20.67;;;;;;;6.09;81.19;100701.69;5060653;28;20557;-66
2022/12/27 01:03:07;;;;;;;30.02;18.98;;;;;;;6.18;81.39;100702.00;5059210;28;20040;-65
2022/12/27 01:05:36;;;;;;;33.38;18.88;;;;;;;6.27;80.81;100704.00;5044646;28;20037;-66
2022/12/27 01:08:02;;;;;;;30.92;18.70;;;;;;;6.32;81.05;100701.88;5037978;28;20029;-65
2022/12/27 01:10:28;;;;;;;31.45;19.98;;;;;;;6.29;79.89;100713.44;5047155;28;20049;-65
2022/12/27 01:12:53;;;;;;;35.97;20.35;;;;;;;6.02;80.88;100716.22;5059494;28;20124;-65
2022/12/27 01:15:19;;;;;;;38.13;20.23;;;;;;;5.76;81.55;100715.41;5042649;28;20086;-65
2022/12/27 01:17:44;;;;;;;30.27;20.27;;;;;;;5.87;81.61;100713.81;5058120;28;20026;-65
2022/12/27 01:20:09;;;;;;;37.92;19.98;;;;;;;5.93;81.66;100703.75;5056877;28;20037;-65
2022/12/27 01:22:35;;;;;;;33.80;19.83;;;;;;;5.85;81.62;100700.78;5061901;28;20334;-65
2022/12/27 01:25:01;;;;;;;30.83;18.48;;;;;;;5.93;81.82;100697.66;5058698;28;20052;-65
2022/12/27 01:27:27;;;;;;;31.90;19.25;;;;;;;6.09;80.67;100692.97;5058963;28;20045;-65
2022/12/27 01:29:52;;;;;;;33.55;19.55;;;;;;;6.02;81.11;100691.72;5057340;28;20115;-65
2022/12/27 01:32:18;;;;;;;31.58;18.60;;;;;;;6.08;80.73;100689.50;5056914;28;20078;-64
2022/12/27 01:34:43;;;;;;;30.80;19.35;;;;;;;6.19;78.55;100685.25;5057968;28;20322;-65
2022/12/27 01:37:09;;;;;;;30.33;18.45;;;;;;;6.27;78.56;100675.91;5059010;28;20309;-65
2022/12/27 01:39:34;;;;;;;31.30;18.77;;;;;;;6.39;78.39;100682.06;5057603;28;20120;-66
2022/12/27 01:44:50;;;;;;;32.08;20.42;;;;;;;6.44;77.16;100676.44;5055717;28;20043;-65
2022/12/27 01:47:24;;;;;;;32.80;20.75;;;;;;;6.47;76.86;100678.84;5059534;28;20036;-65
2022/12/27 01:50:09;;;;;;;28.45;17.92;;;;;;;6.46;75.94;100675.38;5058713;28;20041;-65
2022/12/27 01:52:41;;;;;;;38.80;21.15;;;;;;;6.49;75.93;100679.59;5056945;28;20033;-65
2022/12/27 01:55:17;;;;;;;31.95;18.35;;;;;;;6.47;76.34;100676.22;5057317;28;20361;-65
2022/12/27 01:57:44;;;;;;;28.95;17.38;;;;;;;6.45;75.47;100688.66;5055084;28;20036;-65
2022/12/27 02:00:10;;;;;;;26.60;17.98;;;;;;;6.35;75.05;100686.69;5057814;28;20029;-64
2022/12/27 02:02:36;;;;;;;27.98;18.20;;;;;;;6.35;75.74;100680.59;5058192;28;20040;-64
2022/12/27 02:05:02;;;;;;;28.42;17.83;;;;;;;6.35;75.53;100672.69;5055012;28;20040;-65
2022/12/27 02:07:40;;;;;;;30.85;19.38;;;;;;;6.25;76.39;100667.28;5058156;28;20108;-66
2022/12/27 02:10:05;;;;;;;30.92;18.80;;;;;;;6.29;76.73;100663.47;5057607;28;20116;-65
2022/12/27 02:12:31;;;;;;;35.90;20.95;;;;;;;6.29;75.73;100662.63;5055434;28;20049;-64
2022/12/27 02:14:57;;;;;;;31.13;18.67;;;;;;;6.27;75.56;100665.38;5058800;28;20049;-64
2022/12/27 02:17:26;;;;;;;35.88;19.30;;;;;;;6.10;76.32;100660.47;5056639;28;20282;-64
2022/12/27 02:20:12;;;;;;;29.42;18.70;;;;;;;5.90;77.07;100661.06;5057980;28;20037;-64
2022/12/27 02:25:50;;;;;;;70.20;30.33;;;;;;;5.98;76.99;100669.25;5056288;28;20123;-65
2022/12/27 02:28:46;;;;;;;48.95;24.10;;;;;;;6.02;77.20;100660.19;5056783;28;20029;-66
2022/12/27 02:31:21;;;;;;;39.95;22.65;;;;;;;6.06;76.79;100665.09;5057172;28;20245;-64
2022/12/27 02:33:50;;;;;;;34.75;19.95;;;;;;;6.06;76.63;100651.13;5055965;28;20064;-65
2022/12/27 02:36:26;;;;;;;34.75;20.77;;;;;;;6.02;76.68;100655.75;5056442;28;20035;-65
2022/12/27 02:38:57;;;;;;;34.80;19.50;;;;;;;6.00;76.94;100664.72;5056000;28;20059;-64
2022/12/27 02:55:34;;;;;;;34.65;19.30;;;;;;;5.69;78.67;100642.38;5056182;28;20278;-64
2022/12/27 02:58:27;;;;;;;31.13;18.80;;;;;;;5.74;78.74;100643.72;5056976;28;20325;-65
2022/12/27 03:04:33;;;;;;;32.97;18.38;;;;;;;5.91;78.19;100650.44;5056187;28;20301;-64
2022/12/27 03:07:10;;;;;;;30.83;18.40;;;;;;;5.83;78.37;100651.91;5056062;28;20066;-64
2022/12/27 03:16:21;;;;;;;28.35;17.55;;;;;;;5.93;78.22;100656.44;5054855;28;20365;-64
2022/12/27 03:27:44;;;;;;;38.80;22.00;;;;;;;5.80;78.62;100652.97;5055105;28;20365;-65
2022/12/27 03:33:12;;;;;;;33.80;19.00;;;;;;;5.88;77.33;100637.50;4972163;28;20382;-65
2022/12/27 03:35:42;;;;;;;30.25;18.45;;;;;;;5.93;77.05;100634.56;5038615;28;20044;-65
2022/12/27 03:38:12;;;;;;;30.60;18.77;;;;;;;5.96;76.51;100631.72;5054959;28;20099;-64
2022/12/27 03:43:29;;;;;;;30.33;18.40;;;;;;;5.93;76.07;100630.13;5054973;28;20055;-65
2022/12/27 03:49:00;;;;;;;25.83;16.80;;;;;;;5.91;75.58;100629.41;5056698;28;20119;-66
2022/12/27 03:51:28;;;;;;;33.80;19.10;;;;;;;5.93;75.10;100629.31;5055449;28;20031;-65
2022/12/27 03:54:01;;;;;;;28.13;19.23;;;;;;;5.80;76.35;100626.69;5056581;28;20257;-65
2022/12/27 03:56:27;;;;;;;30.52;20.45;;;;;;;5.66;77.22;100625.03;5058555;28;20127;-65
2022/12/27 03:58:56;;;;;;;31.70;18.08;;;;;;;5.67;76.81;100623.25;5060300;28;20405;-67
2022/12/27 04:01:21;;;;;;;31.98;18.98;;;;;;;5.47;77.46;100632.56;5058459;28;20293;-66
2022/12/27 04:03:46;;;;;;;30.20;17.90;;;;;;;5.64;78.09;100637.44;5059752;28;20048;-64
2022/12/27 04:06:12;;;;;;;36.70;20.25;;;;;;;5.59;77.94;100643.97;5058989;28;20392;-64
2022/12/27 04:35:58;;;;;;;26.33;15.70;;;;;;;5.34;77.40;100640.44;5059201;28;20039;-65
2022/12/27 04:38:23;;;;;;;28.92;16.98;;;;;;;5.18;78.72;100647.69;5057761;28;20037;-64
2022/12/27 04:54:56;;;;;;;23.17;14.95;;;;;;;5.34;78.80;100650.13;5058449;28;20048;-65
2022/12/27 04:57:22;;;;;;;29.77;15.73;;;;;;;5.17;78.00;100653.88;5057607;28;20029;-64
2022/12/27 05:02:32;;;;;;;29.02;15.63;;;;;;;5.42;76.15;100663.56;5058114;28;20090;-65
2022/12/27 05:04:57;;;;;;;25.33;15.60;;;;;;;5.47;76.44;100666.69;5057778;28;20252;-65
2022/12/27 05:15:47;;;;;;;22.63;14.23;;;;;;;5.42;76.26;100663.56;5036967;28;19947;-65
2022/12/27 05:18:12;;;;;;;32.05;18.98;;;;;;;5.27;76.92;100656.75;5038392;28;20083;-65
2022/12/27 05:20:38;;;;;;;43.65;25.25;;;;;;;4.95;78.19;100649.25;5036748;28;20045;-65
2022/12/27 05:25:47;;;;;;;38.65;22.25;;;;;;;4.87;79.34;100648.94;5037507;28;21528;-65
2022/12/27 05:28:13;;;;;;;38.65;21.42;;;;;;;4.82;79.21;100641.38;5038194;28;20246;-65
2022/12/27 05:30:41;;;;;;;34.55;19.52;;;;;;;4.87;79.37;100640.22;5037767;28;20034;-65
2022/12/27 05:33:07;;;;;;;30.42;18.42;;;;;;;4.77;80.13;100656.59;5034291;28;20041;-65
2022/12/27 05:35:35;;;;;;;46.50;22.33;;;;;;;4.79;80.38;100656.47;5037928;28;20034;-64
2022/12/27 05:38:01;;;;;;;41.40;24.23;;;;;;;4.68;81.39;100658.97;5038013;28;20044;-64
2022/12/27 05:40:26;;;;;;;44.13;26.40;;;;;;;4.88;79.43;100658.47;5037356;28;20214;-65
2022/12/27 05:42:52;;;;;;;36.55;21.30;;;;;;;4.91;79.96;100657.44;5037084;28;20334;-65
2022/12/27 05:45:19;;;;;;;39.30;24.45;;;;;;;4.94;80.24;100663.31;5035963;28;20064;-64
2022/12/27 05:47:44;;;;;;;45.90;24.38;;;;;;;5.07;79.98;100664.16;5038075;28;20044;-65
2022/12/27 05:50:10;;;;;;;35.22;22.38;;;;;;;5.07;80.22;100660.69;5036520;28;20041;-65
2022/12/27 05:52:35;;;;;;;41.35;24.25;;;;;;;5.14;79.52;100649.69;5037857;28;20602;-64
2022/12/27 05:55:01;;;;;;;41.38;24.27;;;;;;;5.14;79.80;100659.34;5036143;28;20238;-64
2022/12/27 05:57:26;;;;;;;39.75;23.33;;;;;;;5.04;80.55;100659.13;5037455;28;20041;-65
2022/12/27 05:59:52;;;;;;;39.47;22.10;;;;;;;5.02;80.54;100670.66;5036350;28;20029;-65
2022/12/27 06:02:17;;;;;;;31.63;20.33;;;;;;;4.94;81.32;100668.56;5037063;28;20127;-65
2022/12/27 06:04:43;;;;;;;41.63;23.35;;;;;;;4.85;81.92;100666.56;5036205;28;20041;-65
2022/12/27 06:07:12;;;;;;;46.47;32.05;;;;;;;4.96;81.88;100671.09;5036571;28;20037;-65
2022/12/27 06:09:38;;;;;;;52.20;34.80;;;;;;;5.04;81.55;100664.38;5037245;28;20039;-64
2022/12/27 06:12:04;;;;;;;50.15;29.30;;;;;;;5.15;81.95;100661.00;5039128;28;20099;-65
2022/12/27 06:14:29;;;;;;;43.15;27.00;;;;;;;5.27;81.03;100664.63;5055649;28;20052;-65
2022/12/27 06:16:54;;;;;;;39.83;25.45;;;;;;;5.32;80.56;100668.59;5055844;28;20029;-65
2022/12/27 06:19:20;;;;;;;46.10;26.25;;;;;;;5.32;81.46;100670.38;5056108;28;20412;-64
2022/12/27 06:21:45;;;;;;;53.83;32.63;;;;;;;5.52;80.76;100671.63;5056540;28;20048;-65
2022/12/27 06:24:11;;;;;;;55.38;33.67;;;;;;;5.65;80.18;100675.91;5057788;28;20820;-65
2022/12/27 06:26:36;;;;;;;35.92;23.10;;;;;;;5.60;78.65;100678.03;5056072;28;21438;-66
2022/12/27 06:29:02;;;;;;;36.25;21.38;;;;;;;5.42;78.29;100674.06;5056818;28;20032;-64
2022/12/27 06:31:27;;;;;;;47.00;23.42;;;;;;;5.35;78.28;100676.28;5055890;28;20057;-64
2022/12/27 06:33:54;;;;;;;32.20;19.13;;;;;;;5.23;78.85;100685.00;5057467;28;20029;-64
2022/12/27 06:36:22;;;;;;;35.10;19.13;;;;;;;5.02;78.51;100674.13;5056866;28;20032;-65
2022/12/27 06:38:48;;;;;;;27.42;17.02;;;;;;;4.91;79.43;100679.28;5056140;28;20392;-65
2022/12/27 06:41:16;;;;;;;28.27;17.02;;;;;;;4.60;81.26;100690.13;5056393;28;20100;-66
2022/12/27 06:43:42;;;;;;;27.80;13.13;;;;;;;4.44;82.11;100691.13;5054820;28;20041;-64
2022/12/27 06:46:13;;;;;;;19.33;11.57;;;;;;;4.40;82.82;100676.53;5056151;28;20032;-64
2022/12/27 06:48:39;;;;;;;22.10;12.05;;;;;;;4.26;84.00;100679.22;5055480;28;20348;-65
2022/12/27 06:51:06;;;;;;;20.67;12.25;;;;;;;4.48;83.21;100678.66;5055781;28;20068;-65
2022/12/27 06:53:32;;;;;;;20.65;12.55;;;;;;;4.64;83.38;100675.88;5055339;28;20381;-65
2022/12/27 06:56:05;;;;;;;19.23;11.18;;;;;;;4.72;83.48;100657.84;5055090;28;20043;-64
2022/12/27 06:58:31;;;;;;;20.97;11.60;;;;;;;4.53;84.95;100673.09;5056142;28;20965;-65
2022/12/27 07:00:56;;;;;;;17.55;10.25;;;;;;;4.46;86.10;100672.66;5055827;28;20090;-65
2022/12/27 07:03:21;;;;;;;14.38;9.77;;;;;;;4.70;85.62;100665.81;5056396;28;20228;-65
2022/12/27 07:05:47;;;;;;;21.00;11.20;;;;;;;4.89;85.32;100670.66;5056032;28;20037;-65
2022/12/27 07:08:12;;;;;;;20.00;10.88;;;;;;;4.98;85.21;100671.81;5055526;28;20040;-65
2022/12/27 07:10:38;;;;;;;26.05;14.25;;;;;;;5.12;84.62;100650.72;5054978;28;20045;-65
2022/12/27 07:13:03;;;;;;;26.55;16.02;;;;;;;5.30;84.67;100646.84;5055199;28;20032;-65
2022/12/27 07:15:29;;;;;;;28.95;15.95;;;;;;;5.44;84.47;100643.28;5056400;28;20037;-65
2022/12/27 07:17:54;;;;;;;28.27;16.67;;;;;;;5.72;84.10;100647.41;5055153;28;20028;-65
2022/12/27 07:20:20;;;;;;;31.00;18.20;;;;;;;6.00;82.91;100646.31;5056098;28;20059;-65
2022/12/27 07:22:45;;;;;;;28.00;17.50;;;;;;;6.29;82.57;100645.06;5055391;28;20036;-65
2022/12/27 07:25:11;;;;;;;27.52;15.98;;;;;;;6.30;83.68;100638.84;5057358;28;20339;-65
2022/12/27 07:27:36;;;;;;;27.30;16.60;;;;;;;6.47;82.10;100653.38;5054630;28;20047;-65
2022/12/27 07:30:03;;;;;;;28.65;17.95;;;;;;;6.60;82.18;100656.78;5055501;28;20108;-65
2022/12/27 07:32:29;;;;;;;25.48;17.67;;;;;;;6.36;82.92;100648.06;5055143;28;20052;-66
2022/12/27 07:34:54;;;;;;;24.67;13.35;;;;;;;6.43;83.45;100644.03;5055145;28;20044;-65
2022/12/27 07:37:20;;;;;;;26.23;16.88;;;;;;;6.37;84.20;100647.97;5056977;28;20022;-66
2022/12/27 07:39:46;;;;;;;21.02;13.13;;;;;;;6.44;84.55;100647.50;5055114;28;20028;-66
2022/12/27 07:42:12;;;;;;;20.15;12.32;;;;;;;6.46;83.70;100654.34;5056787;28;20118;-65
2022/12/27 07:44:37;;;;;;;18.02;11.43;;;;;;;6.09;86.18;100651.75;5054752;28;20399;-66
2022/12/27 07:47:03;;;;;;;17.73;11.63;;;;;;;6.39;85.64;100648.69;5056644;28;20316;-66
2022/12/27 07:49:29;;;;;;;21.55;11.88;;;;;;;6.65;84.00;100657.28;5054544;28;20233;-65
2022/12/27 07:51:54;;;;;;;20.35;13.43;;;;;;;6.70;84.97;100654.31;5056154;28;20307;-66
2022/12/27 07:54:20;;;;;;;18.63;12.57;;;;;;;6.80;84.80;100655.28;5055768;28;20326;-65
2022/12/27 07:56:45;;;;;;;19.15;12.73;;;;;;;6.83;84.74;100654.22;5054481;28;20036;-66
2022/12/27 07:59:12;;;;;;;20.00;13.43;;;;;;;7.02;84.55;100659.75;5056615;28;20385;-65
2022/12/27 08:04:22;;;;;;;17.95;12.40;;;;;;;7.26;83.79;100678.13;5054209;28;20044;-65
2022/12/27 08:06:48;;;;;;;18.83;12.70;;;;;;;6.84;86.30;100669.91;5056750;28;20033;-65
2022/12/27 08:09:24;;;;;;;20.13;12.15;;;;;;;6.79;86.78;100661.50;5053668;28;20041;-65
2022/12/27 08:11:50;;;;;;;19.35;12.00;;;;;;;7.20;85.58;100658.34;5055377;28;20120;-65
2022/12/27 08:14:16;;;;;;;22.35;12.82;;;;;;;7.46;84.85;100656.34;5055731;28;20037;-65
2022/12/27 08:16:41;;;;;;;21.80;12.13;;;;;;;7.76;83.40;100642.56;5055194;28;20037;-66
2022/12/27 08:19:07;;;;;;;23.25;14.10;;;;;;;8.08;82.44;100649.69;5056225;28;20071;-66
2022/12/27 08:21:32;;;;;;;24.02;15.98;;;;;;;8.35;81.50;100641.38;5055483;28;21255;-63
2022/12/27 08:23:57;;;;;;;24.83;15.57;;;;;;;8.48;80.11;100642.88;5054837;28;20051;-64
2022/12/27 08:26:23;;;;;;;24.08;15.73;;;;;;;8.58;79.37;100638.53;5054968;28;20051;-64
2022/12/27 08:28:48;;;;;;;28.98;15.70;;;;;;;8.71;79.53;100635.69;5053849;28;20044;-63
2022/12/27 08:31:14;;;;;;;25.35;16.27;;;;;;;8.81;77.92;100628.69;5055774;28;20112;-63
2022/12/27 08:33:40;;;;;;;26.27;14.57;;;;;;;8.97;77.54;100628.22;5055198;28;20075;-63
2022/12/27 08:36:08;;;;;;;26.67;16.27;;;;;;;9.05;78.41;100620.47;5056307;28;20788;-64
2022/12/27 08:38:34;;;;;;;37.45;20.58;;;;;;;9.17;79.06;100614.13;5054978;28;20040;-63
2022/12/27 08:40:59;;;;;;;36.88;21.13;;;;;;;9.27;78.24;100619.47;5055764;28;20068;-63
2022/12/27 08:43:25;;;;;;;29.65;17.80;;;;;;;9.31;78.44;100612.94;5059440;28;20055;-64
2022/12/27 08:45:50;;;;;;;28.65;18.05;;;;;;;9.29;79.83;100606.97;5060004;28;20103;-63
2022/12/27 08:48:16;;;;;;;22.05;16.35;;;;;;;9.43;79.45;100617.19;5059004;28;20245;-62
2022/12/27 08:50:41;;;;;;;23.08;14.65;;;;;;;9.52;79.26;100607.63;5060021;28;20307;-64
2022/12/27 08:53:07;;;;;;;22.38;13.85;;;;;;;9.62;78.52;100605.84;5060761;28;20352;-63
2022/12/27 08:55:33;;;;;;;20.60;14.43;;;;;;;9.62;78.66;100602.38;5059458;28;20049;-64
2022/12/27 08:58:00;;;;;;;23.98;14.75;;;;;;;9.65;78.49;100604.75;5059812;28;20041;-64
2022/12/27 09:00:27;;;;;;;25.80;15.68;;;;;;;9.63;78.40;100601.41;5060224;28;20036;-63
2022/12/27 09:02:53;;;;;;;27.60;15.43;;;;;;;9.61;78.50;100604.19;5059359;28;20342;-64
2022/12/27 09:05:19;;;;;;;21.67;14.80;;;;;;;9.64;78.61;100603.91;5060895;28;20063;-63
2022/12/27 09:07:46;;;;;;;24.40;14.82;;;;;;;9.74;78.54;100602.13;5059844;28;20036;-63
2022/12/27 09:10:12;;;;;;;23.00;13.63;;;;;;;9.85;77.44;100603.81;5059203;28;20053;-63
2022/12/27 09:12:37;;;;;;;26.63;16.55;;;;;;;9.88;77.47;100595.63;5059987;28;20036;-63
2022/12/27 09:15:03;;;;;;;23.98;13.02;;;;;;;9.54;79.82;100579.25;5060111;28;20067;-64
2022/12/27 09:17:28;;;;;;;24.23;14.52;;;;;;;9.59;79.57;100574.41;5059756;28;20048;-63
2022/12/27 09:19:54;;;;;;;21.90;14.07;;;;;;;9.59;78.96;100574.41;5059876;28;20052;-63
2022/12/27 09:22:19;;;;;;;27.40;15.68;;;;;;;9.52;81.08;100571.44;5060267;28;20045;-62
2022/12/27 09:24:45;;;;;;;24.52;16.33;;;;;;;9.46;79.66;100585.22;5059415;28;20037;-63
2022/12/27 09:27:10;;;;;;;27.95;18.58;;;;;;;9.36;81.13;100568.47;5060031;28;20041;-66
2022/12/27 09:29:35;;;;;;;30.30;18.55;;;;;;;9.35;81.46;100552.72;5059900;28;20041;-63
2022/12/27 09:32:01;;;;;;;28.73;17.63;;;;;;;9.48;81.47;100542.78;5059974;28;20028;-64
2022/12/27 09:34:26;;;;;;;25.35;17.25;;;;;;;9.66;80.76;100548.25;5059643;28;20052;-62
2022/12/27 09:36:52;;;;;;;28.40;17.30;;;;;;;9.71;80.27;100536.28;5059964;28;20029;-64
2022/12/27 09:39:17;;;;;;;27.40;18.65;;;;;;;9.82;80.41;100533.50;5058791;28;20314;-63
2022/12/27 09:42:00;;;;;;;27.17;17.85;;;;;;;9.89;80.37;100533.78;5041483;28;20090;-64
2022/12/27 09:44:49;;;;;;;27.45;17.65;;;;;;;9.68;82.87;100527.78;5059587;28;20036;-64
2022/12/27 09:47:47;;;;;;;28.52;17.95;;;;;;;9.32;83.92;100534.50;5059582;28;20087;-63
2022/12/27 09:50:19;;;;;;;28.80;17.98;;;;;;;9.41;85.29;100528.44;5059651;28;20033;-64
2022/12/27 09:53:05;;;;;;;25.48;17.50;;;;;;;9.27;84.76;100527.81;5059132;28;20060;-64
2022/12/27 09:55:37;;;;;;;27.08;18.50;;;;;;;9.29;86.59;100525.88;5059226;28;20220;-63
2022/12/27 09:58:21;;;;;;;26.17;17.85;;;;;;;9.44;84.85;100515.78;5059820;28;20037;-64
2022/12/27 10:00:49;;;;;;;22.40;16.42;;;;;;;9.48;85.02;100511.06;5058982;28;20055;-63
2022/12/27 10:03:18;;;;;;;23.48;14.90;;;;;;;9.54;85.46;100514.00;5059042;28;20037;-63
2022/12/27 10:05:49;;;;;;;19.42;13.82;;;;;;;9.37;86.03;100506.72;5059132;28;20028;-64
2022/12/27 10:08:31;;;;;;;18.75;13.23;;;;;;;9.51;88.24;100513.44;5059265;28;20053;-64
2022/12/27 10:11:34;;;;;;;19.50;11.73;;;;;;;9.43;87.43;100505.34;5058591;28;20049;-64
2022/12/27 10:14:39;;;;;;;14.00;10.23;;;;;;;9.47;88.36;100502.28;5059112;28;20070;-64
2022/12/27 10:17:12;;;;;;;13.30;8.15;;;;;;;9.52;88.35;100502.72;5058912;28;20041;-62
2022/12/27 10:20:03;;;;;;;12.00;8.32;;;;;;;9.59;86.90;100495.06;5059410;28;20040;-63
2022/12/27 10:22:33;;;;;;;11.93;7.97;;;;;;;9.67;87.35;100486.44;5006521;28;20128;-63
2022/12/27 10:25:03;;;;;;;14.63;7.80;;;;;;;9.60;87.71;100475.59;5058532;28;20029;-64
2022/12/27 10:27:29;;;;;;;15.68;8.02;;;;;;;9.87;87.42;100473.09;5059053;28;20040;-64
2022/12/27 10:29:57;;;;;;;9.07;7.10;;;;;;;9.84;86.52;100476.00;5058160;28;20257;-63
2022/12/27 10:32:23;;;;;;;11.35;7.63;;;;;;;9.97;86.17;100467.78;5058303;28;20223;-63
2022/12/27 10:34:54;;;;;;;13.43;7.68;;;;;;;10.19;85.92;100466.66;5058806;28;20032;-67
2022/12/27 10:37:20;;;;;;;14.50;8.77;;;;;;;10.25;84.42;100458.19;5058872;28;20029;-66
2022/12/27 10:39:45;;;;;;;13.38;7.90;;;;;;;10.24;84.34;100459.16;5057635;28;20383;-63
2022/12/27 10:42:16;;;;;;;16.17;10.20;;;;;;;10.09;84.56;100458.72;5058942;28;20293;-65
2022/12/27 10:44:42;;;;;;;19.17;10.38;;;;;;;10.36;84.99;100444.78;5058481;28;20071;-66
2022/12/27 10:47:08;;;;;;;15.15;11.13;;;;;;;10.50;84.52;100435.56;5058138;28;20044;-66
2022/12/27 10:49:34;;;;;;;18.25;11.48;;;;;;;10.56;83.01;100448.22;5058635;28;20037;-66
2022/12/27 10:52:09;;;;;;;24.77;13.15;;;;;;;10.65;82.52;100444.72;5058982;28;20045;-65
2022/12/27 10:54:49;;;;;;;20.58;13.13;;;;;;;10.66;83.20;100434.94;5058264;28;20099;-66
2022/12/27 10:57:24;;;;;;;26.52;17.85;;;;;;;10.77;83.23;100427.66;5058285;28;20036;-66
2022/12/27 11:00:19;;;;;;;29.40;18.67;;;;;;;10.91;83.40;100426.31;5057699;28;20051;-68
2022/12/27 11:02:56;;;;;;;27.13;17.08;;;;;;;10.97;82.79;100423.09;5057289;28;20246;-67
2022/12/27 11:05:27;;;;;;;26.00;17.05;;;;;;;11.11;82.68;100416.44;5058269;28;20043;-66
2022/12/27 11:07:53;;;;;;;25.95;17.33;;;;;;;11.14;82.55;100435.53;5058270;28;20045;-67
2022/12/27 11:10:22;;;;;;;21.30;15.82;;;;;;;11.26;83.23;100427.38;5056685;28;20052;-67
2022/12/27 11:13:05;;;;;;;21.88;15.65;;;;;;;11.31;82.07;100412.69;5057402;28;20067;-65
2022/12/27 11:15:36;;;;;;;22.55;14.52;;;;;;;11.23;80.72;100414.41;5058409;28;20075;-63
2022/12/27 11:18:17;;;;;;;20.70;14.27;;;;;;;11.20;81.65;100419.03;5057570;28;20041;-67
2022/12/27 11:20:54;;;;;;;23.45;14.40;;;;;;;11.09;82.47;100415.75;5058073;28;20047;-67
2022/12/27 11:23:23;;;;;;;22.77;14.85;;;;;;;11.17;82.57;100408.72;5057977;28;20043;-67
2022/12/27 11:25:59;;;;;;;23.50;15.90;;;;;;;11.28;82.91;100397.06;5057647;28;20307;-66
2022/12/27 11:28:43;;;;;;;25.80;17.30;;;;;;;11.25;83.91;100389.41;5058119;28;20256;-66
2022/12/27 11:31:19;;;;;;;36.00;21.92;;;;;;;11.21;82.95;100385.41;5058330;28;20029;-66
2022/12/27 11:33:48;;;;;;;33.22;20.70;;;;;;;11.44;82.81;100399.91;5057237;28;20314;-64
2022/12/27 11:36:24;;;;;;;29.33;18.08;;;;;;;11.38;81.73;100392.53;5057232;28;20041;-63
2022/12/27 11:38:50;;;;;;;25.35;14.32;;;;;;;11.45;82.31;100392.78;5056854;28;20033;-64
2022/12/27 11:41:38;;;;;;;21.05;14.43;;;;;;;11.48;81.51;100392.50;5056850;28;20028;-65
2022/12/27 11:44:07;;;;;;;21.52;14.02;;;;;;;11.51;81.73;100389.53;5043736;28;20047;-64
2022/12/27 11:46:44;;;;;;;25.70;15.55;;;;;;;11.58;81.72;100387.09;5057139;28;20049;-64
2022/12/27 11:49:27;;;;;;;24.83;14.88;;;;;;;11.63;81.53;100377.69;5057685;28;20036;-64
2022/12/27 11:52:20;;;;;;;23.58;14.75;;;;;;;11.69;80.86;100373.59;5057999;28;20041;-64
2022/12/27 11:54:54;;;;;;;25.02;15.88;;;;;;;11.77;80.72;100379.84;5057410;28;20033;-64
2022/12/27 11:57:22;;;;;;;23.60;14.60;;;;;;;11.81;80.21;100377.72;5058026;28;20056;-64
2022/12/27 11:59:53;;;;;;;22.40;14.85;;;;;;;11.87;80.88;100378.91;5058112;28;20120;-64
2022/12/27 12:02:27;;;;;;;17.63;12.82;;;;;;;11.92;80.96;100372.16;5056968;28;20369;-64
2022/12/27 12:05:20;;;;;;;20.73;13.25;;;;;;;12.02;79.60;100375.53;5057439;28;20036;-65
2022/12/27 12:07:45;;;;;;;19.65;13.85;;;;;;;12.10;78.97;100361.47;5046726;28;20049;-64
2022/12/27 12:10:31;;;;;;;21.55;12.77;;;;;;;12.19;79.47;100362.34;5057013;28;20055;-64
2022/12/27 12:12:57;;;;;;;21.00;13.48;;;;;;;12.19;78.81;100365.84;5057909;28;20059;-65
2022/12/27 12:16:04;;;;;;;22.38;13.48;;;;;;;12.21;80.13;100371.00;5059714;28;20060;-64
2022/12/27 12:18:41;;;;;;;21.83;14.38;;;;;;;12.28;80.43;100364.06;5059687;28;20040;-65
2022/12/27 12:21:17;;;;;;;22.13;14.00;;;;;;;12.32;81.22;100368.06;5061024;28;20067;-64
2022/12/27 12:24:16;;;;;;;21.92;14.40;;;;;;;12.39;79.95;100363.78;5061073;28;20139;-64
2022/12/27 12:27:11;;;;;;;26.38;15.25;;;;;;;12.55;79.56;100366.56;5060726;28;20037;-64
2022/12/27 12:29:57;;;;;;;27.08;15.93;;;;;;;12.62;78.38;100366.75;5014328;28;20050;-64
2022/12/27 12:32:47;;;;;;;31.75;20.23;;;;;;;12.69;82.20;100357.13;5060887;28;20040;-64
2022/12/27 12:35:26;;;;;;;29.00;17.38;;;;;;;12.86;83.01;100363.34;5049454;28;20312;-64
2022/12/27 12:38:03;;;;;;;24.75;16.10;;;;;;;12.91;80.61;100363.69;5060241;28;20433;-63
2022/12/27 12:40:51;;;;;;;20.95;14.32;;;;;;;13.02;80.34;100363.38;5059445;28;20037;-64
2022/12/27 12:43:36;;;;;;;19.77;14.73;;;;;;;13.13;79.31;100368.41;5060462;28;20159;-63
2022/12/27 12:46:21;;;;;;;21.77;13.90;;;;;;;13.19;77.47;100367.78;5060482;28;20081;-63
2022/12/27 12:49:03;;;;;;;18.98;13.30;;;;;;;13.23;77.25;100369.09;5053745;28;20056;-65
2022/12/27 12:52:08;;;;;;;18.88;12.98;;;;;;;13.27;77.53;100364.28;5060932;28;20057;-65
2022/12/27 12:54:43;;;;;;;18.15;12.30;;;;;;;13.27;77.73;100366.94;5038192;28;20061;-64
2022/12/27 12:57:34;;;;;;;22.15;11.95;;;;;;;13.23;78.38;100368.28;5060860;28;20048;-64
2022/12/27 13:00:14;;;;;;;19.48;12.13;;;;;;;13.26;78.43;100365.28;5054063;28;20025;-64
2022/12/27 13:02:48;;;;;;;20.48;12.70;;;;;;;13.32;78.77;100365.47;5058798;28;20075;-65
2022/12/27 13:05:35;;;;;;;12.52;8.82;;;;;;;13.38;77.65;100358.66;5059811;28;20086;-64
2022/12/27 13:08:18;;;;;;;13.35;8.50;;;;;;;13.46;77.30;100348.00;5058068;28;20056;-63
2022/12/27 13:10:44;;;;;;;10.45;5.60;;;;;;;13.58;76.15;100343.22;5058479;28;20064;-64
2022/12/27 13:14:03;;;;;;;4.28;3.30;;;;;;;13.75;75.70;100352.84;5059343;28;20307;-64
2022/12/27 13:16:44;;;;;;;6.07;3.00;;;;;;;13.98;75.01;100343.19;4988445;28;20038;-63
2022/12/27 13:19:41;;;;;;;4.75;3.35;;;;;;;14.12;75.46;100352.31;5051563;28;20052;-63